sensor_id;sensor_type;location;lat;lon;timestamp;pressure;altitude;pressure_sealevel;temperature;humidity
72330;BME280;60660;52.076;5.110;2023-03-01T00:00:22;103306.75;;;0.73;31.95
72330;BME280;60660;52.076;5.110;2023-03-01T00:02:48;103301.70;;;0.98;30.77
72330;BME280;60660;52.076;5.110;2023-03-01T00:05:13;103300.82;;;-0.17;31.54
72330;BME280;60660;52.076;5.110;2023-03-01T00:07:38;103304.71;;;-0.88;32.48
72330;BME280;60660;52.076;5.110;2023-03-01T00:10:04;103308.26;;;-1.48;33.97
72330;BME280;60660;52.076;5.110;2023-03-01T00:12:29;103306.32;;;-0.04;33.17
72330;BME280;60660;52.076;5.110;2023-03-01T00:14:54;103302.71;;;-1.03;33.34
72330;BME280;60660;52.076;5.110;2023-03-01T00:17:20;103301.44;;;-0.07;33.19
72330;BME280;60660;52.076;5.110;2023-03-01T00:19:46;103297.77;;;-0.63;33.02
72330;BME280;60660;52.076;5.110;2023-03-01T00:22:11;103296.96;;;0.03;32.86
72330;BME280;60660;52.076;5.110;2023-03-01T00:24:37;103298.21;;;-1.06;33.42
72330;BME280;60660;52.076;5.110;2023-03-01T00:27:03;103293.81;;;-0.17;31.72
72330;BME280;60660;52.076;5.110;2023-03-01T00:29:28;103296.69;;;0.49;30.67
72330;BME280;60660;52.076;5.110;2023-03-01T00:31:52;103299.05;;;0.99;30.03
72330;BME280;60660;52.076;5.110;2023-03-01T00:34:18;103295.05;;;0.86;29.55
72330;BME280;60660;52.076;5.110;2023-03-01T00:36:44;103292.82;;;0.69;29.53
72330;BME280;60660;52.076;5.110;2023-03-01T00:39:12;103288.39;;;0.71;29.78
72330;BME280;60660;52.076;5.110;2023-03-01T00:41:34;103288.03;;;1.54;28.86
72330;BME280;60660;52.076;5.110;2023-03-01T00:44:00;103285.06;;;1.09;28.72
72330;BME280;60660;52.076;5.110;2023-03-01T00:46:26;103281.22;;;0.46;29.52
72330;BME280;60660;52.076;5.110;2023-03-01T00:48:51;103282.52;;;1.38;28.66
72330;BME280;60660;52.076;5.110;2023-03-01T00:51:18;103287.93;;;1.09;28.44
72330;BME280;60660;52.076;5.110;2023-03-01T00:53:41;103286.29;;;1.49;28.28
72330;BME280;60660;52.076;5.110;2023-03-01T00:56:08;103285.65;;;-0.74;30.68
72330;BME280;60660;52.076;5.110;2023-03-01T00:58:32;103285.98;;;-0.36;30.77
72330;BME280;60660;52.076;5.110;2023-03-01T01:00:57;103287.25;;;-0.62;31.29
72330;BME280;60660;52.076;5.110;2023-03-01T01:03:23;103286.28;;;-0.32;30.68
72330;BME280;60660;52.076;5.110;2023-03-01T01:05:48;103286.37;;;-0.04;30.31
72330;BME280;60660;52.076;5.110;2023-03-01T01:08:13;103284.82;;;-0.82;31.30
72330;BME280;60660;52.076;5.110;2023-03-01T01:10:38;103284.23;;;-0.94;32.39
72330;BME280;60660;52.076;5.110;2023-03-01T01:13:04;103287.06;;;-1.28;33.03
72330;BME280;60660;52.076;5.110;2023-03-01T01:15:33;103285.98;;;-1.35;33.66
72330;BME280;60660;52.076;5.110;2023-03-01T01:17:55;103280.54;;;-0.92;33.04
72330;BME280;60660;52.076;5.110;2023-03-01T01:20:21;103278.15;;;-1.00;32.70
72330;BME280;60660;52.076;5.110;2023-03-01T01:22:46;103266.29;;;-0.28;32.14
72330;BME280;60660;52.076;5.110;2023-03-01T01:25:11;103261.95;;;-0.02;30.63
72330;BME280;60660;52.076;5.110;2023-03-01T01:27:37;103258.63;;;1.95;28.42
72330;BME280;60660;52.076;5.110;2023-03-01T01:30:03;103257.28;;;2.06;28.10
72330;BME280;60660;52.076;5.110;2023-03-01T01:32:29;103254.12;;;1.86;27.78
72330;BME280;60660;52.076;5.110;2023-03-01T01:34:53;103250.66;;;2.70;27.51
72330;BME280;60660;52.076;5.110;2023-03-01T01:37:18;103244.99;;;2.97;26.95
72330;BME280;60660;52.076;5.110;2023-03-01T01:39:44;103242.44;;;2.00;27.49
72330;BME280;60660;52.076;5.110;2023-03-01T01:42:13;103239.20;;;0.97;28.34
72330;BME280;60660;52.076;5.110;2023-03-01T01:44:35;103239.44;;;0.14;29.39
72330;BME280;60660;52.076;5.110;2023-03-01T01:47:01;103241.54;;;1.30;28.15
72330;BME280;60660;52.076;5.110;2023-03-01T01:49:30;103242.85;;;1.49;28.16
72330;BME280;60660;52.076;5.110;2023-03-01T01:51:56;103237.45;;;1.10;28.44
72330;BME280;60660;52.076;5.110;2023-03-01T01:54:19;103237.38;;;0.54;29.06
72330;BME280;60660;52.076;5.110;2023-03-01T01:56:46;103236.79;;;0.81;28.90
72330;BME280;60660;52.076;5.110;2023-03-01T01:59:07;103234.66;;;0.05;30.07
72330;BME280;60660;52.076;5.110;2023-03-01T02:01:33;103235.13;;;-1.40;31.50
72330;BME280;60660;52.076;5.110;2023-03-01T02:03:58;103231.37;;;-1.15;31.70
72330;BME280;60660;52.076;5.110;2023-03-01T02:06:28;103231.58;;;-0.86;31.71
72330;BME280;60660;52.076;5.110;2023-03-01T02:08:50;103229.75;;;0.16;30.71
72330;BME280;60660;52.076;5.110;2023-03-01T02:11:15;103225.92;;;0.50;30.39
72330;BME280;60660;52.076;5.110;2023-03-01T02:13:41;103222.87;;;1.22;29.13
72330;BME280;60660;52.076;5.110;2023-03-01T02:16:08;103221.33;;;1.06;28.78
72330;BME280;60660;52.076;5.110;2023-03-01T02:18:31;103221.16;;;0.78;28.71
72330;BME280;60660;52.076;5.110;2023-03-01T02:21:05;103218.54;;;1.44;28.80
72330;BME280;60660;52.076;5.110;2023-03-01T02:23:22;103220.93;;;0.06;30.03
72330;BME280;60660;52.076;5.110;2023-03-01T02:25:51;103221.66;;;-1.41;31.56
72330;BME280;60660;52.076;5.110;2023-03-01T02:28:22;103222.57;;;-1.64;32.89
72330;BME280;60660;52.076;5.110;2023-03-01T02:30:37;103222.58;;;-2.12;33.51
72330;BME280;60660;52.076;5.110;2023-03-01T02:33:04;103226.87;;;-3.40;35.41
72330;BME280;60660;52.076;5.110;2023-03-01T02:35:32;103227.25;;;-3.10;36.23
72330;BME280;60660;52.076;5.110;2023-03-01T02:37:54;103222.24;;;-3.30;36.75
72330;BME280;60660;52.076;5.110;2023-03-01T02:40:20;103222.44;;;-4.50;38.39
72330;BME280;60660;52.076;5.110;2023-03-01T02:42:49;103217.64;;;-3.71;37.99
72330;BME280;60660;52.076;5.110;2023-03-01T02:45:11;103213.43;;;-2.64;36.39
72330;BME280;60660;52.076;5.110;2023-03-01T02:47:37;103209.52;;;-2.65;35.31
72330;BME280;60660;52.076;5.110;2023-03-01T02:50:02;103202.59;;;-3.00;36.16
72330;BME280;60660;52.076;5.110;2023-03-01T02:52:37;103201.27;;;-3.11;35.88
72330;BME280;60660;52.076;5.110;2023-03-01T02:54:57;103198.96;;;-2.93;36.32
72330;BME280;60660;52.076;5.110;2023-03-01T02:57:18;103200.00;;;-2.09;34.88
72330;BME280;60660;52.076;5.110;2023-03-01T02:59:44;103195.35;;;-3.05;36.57
72330;BME280;60660;52.076;5.110;2023-03-01T03:02:20;103197.83;;;-2.04;34.76
72330;BME280;60660;52.076;5.110;2023-03-01T03:04:35;103195.40;;;-1.38;33.67
72330;BME280;60660;52.076;5.110;2023-03-01T03:07:01;103190.42;;;-0.44;31.98
72330;BME280;60660;52.076;5.110;2023-03-01T03:09:27;103186.17;;;-1.50;32.64
72330;BME280;60660;52.076;5.110;2023-03-01T03:11:52;103187.57;;;-0.72;32.30
72330;BME280;60660;52.076;5.110;2023-03-01T03:14:18;103189.23;;;-0.15;31.49
72330;BME280;60660;52.076;5.110;2023-03-01T03:16:45;103186.79;;;-1.82;32.93
72330;BME280;60660;52.076;5.110;2023-03-01T03:19:09;103187.71;;;-1.12;32.63
72330;BME280;60660;52.076;5.110;2023-03-01T03:21:35;103186.07;;;-2.43;33.00
72330;BME280;60660;52.076;5.110;2023-03-01T03:24:00;103190.96;;;-1.66;33.19
72330;BME280;60660;52.076;5.110;2023-03-01T03:26:26;103184.72;;;-1.53;32.87
72330;BME280;60660;52.076;5.110;2023-03-01T03:28:51;103183.65;;;-1.07;31.95
72330;BME280;60660;52.076;5.110;2023-03-01T03:31:17;103178.57;;;-0.89;31.69
72330;BME280;60660;52.076;5.110;2023-03-01T03:33:42;103174.39;;;-0.46;31.13
72330;BME280;60660;52.076;5.110;2023-03-01T03:36:07;103170.46;;;-0.66;30.78
72330;BME280;60660;52.076;5.110;2023-03-01T03:38:33;103167.50;;;-3.45;32.76
72330;BME280;60660;52.076;5.110;2023-03-01T03:41:01;103167.96;;;-0.88;31.28
72330;BME280;60660;52.076;5.110;2023-03-01T03:43:23;103169.77;;;-0.21;30.43
72330;BME280;60660;52.076;5.110;2023-03-01T03:45:50;103167.37;;;0.81;29.17
72330;BME280;60660;52.076;5.110;2023-03-01T03:48:15;103165.81;;;1.68;28.06
72330;BME280;60660;52.076;5.110;2023-03-01T03:50:40;103166.31;;;1.49;27.82
72330;BME280;60660;52.076;5.110;2023-03-01T03:53:07;103163.18;;;-0.61;29.97
72330;BME280;60660;52.076;5.110;2023-03-01T03:55:31;103160.14;;;0.23;29.13
72330;BME280;60660;52.076;5.110;2023-03-01T03:57:57;103160.31;;;1.46;28.52
72330;BME280;60660;52.076;5.110;2023-03-01T04:00:22;103154.27;;;-0.21;29.50
72330;BME280;60660;52.076;5.110;2023-03-01T04:02:47;103155.55;;;-0.29;29.24
72330;BME280;60660;52.076;5.110;2023-03-01T04:05:14;103153.33;;;0.11;29.18
72330;BME280;60660;52.076;5.110;2023-03-01T04:07:38;103151.57;;;0.06;28.39
72330;BME280;60660;52.076;5.110;2023-03-01T04:10:04;103154.79;;;0.33;28.50
72330;BME280;60660;52.076;5.110;2023-03-01T04:12:29;103159.26;;;0.15;28.17
72330;BME280;60660;52.076;5.110;2023-03-01T04:14:54;103163.01;;;-0.58;28.88
72330;BME280;60660;52.076;5.110;2023-03-01T04:17:20;103162.59;;;-1.08;30.37
72330;BME280;60660;52.076;5.110;2023-03-01T04:19:45;103161.46;;;-0.40;29.81
72330;BME280;60660;52.076;5.110;2023-03-01T04:22:11;103158.80;;;0.19;28.63
72330;BME280;60660;52.076;5.110;2023-03-01T04:24:36;103154.96;;;0.73;28.04
72330;BME280;60660;52.076;5.110;2023-03-01T04:27:01;103154.06;;;-0.07;28.47
72330;BME280;60660;52.076;5.110;2023-03-01T04:29:28;103157.69;;;0.11;28.11
72330;BME280;60660;52.076;5.110;2023-03-01T04:31:52;103158.06;;;-1.75;30.30
72330;BME280;60660;52.076;5.110;2023-03-01T04:34:17;103159.35;;;-1.99;31.49
72330;BME280;60660;52.076;5.110;2023-03-01T04:36:42;103166.51;;;-2.23;32.24
72330;BME280;60660;52.076;5.110;2023-03-01T04:39:08;103166.48;;;-0.82;31.31
72330;BME280;60660;52.076;5.110;2023-03-01T04:41:33;103166.05;;;-0.78;31.50
72330;BME280;60660;52.076;5.110;2023-03-01T04:43:59;103163.17;;;1.36;28.53
72330;BME280;60660;52.076;5.110;2023-03-01T04:46:25;103158.16;;;1.07;27.98
72330;BME280;60660;52.076;5.110;2023-03-01T04:48:50;103153.38;;;0.16;28.77
72330;BME280;60660;52.076;5.110;2023-03-01T04:51:16;103150.14;;;0.47;28.41
72330;BME280;60660;52.076;5.110;2023-03-01T04:53:42;103152.18;;;1.85;27.23
72330;BME280;60660;52.076;5.110;2023-03-01T04:56:07;103148.56;;;2.05;27.02
72330;BME280;60660;52.076;5.110;2023-03-01T04:58:32;103145.04;;;1.93;26.76
72330;BME280;60660;52.076;5.110;2023-03-01T05:00:57;103137.60;;;1.12;27.06
72330;BME280;60660;52.076;5.110;2023-03-01T05:03:23;103136.01;;;1.41;26.84
72330;BME280;60660;52.076;5.110;2023-03-01T05:05:50;103131.61;;;0.30;27.71
72330;BME280;60660;52.076;5.110;2023-03-01T05:08:14;103135.75;;;2.33;26.47
72330;BME280;60660;52.076;5.110;2023-03-01T05:10:39;103130.03;;;-0.70;29.07
72330;BME280;60660;52.076;5.110;2023-03-01T05:13:04;103129.75;;;-0.36;30.17
72330;BME280;60660;52.076;5.110;2023-03-01T05:15:30;103123.83;;;-1.72;32.04
72330;BME280;60660;52.076;5.110;2023-03-01T05:17:56;103120.68;;;-0.56;30.89
72330;BME280;60660;52.076;5.110;2023-03-01T05:20:21;103119.29;;;-0.09;30.00
72330;BME280;60660;52.076;5.110;2023-03-01T05:22:45;103119.62;;;0.06;29.96
72330;BME280;60660;52.076;5.110;2023-03-01T05:25:11;103114.68;;;1.18;28.23
72330;BME280;60660;52.076;5.110;2023-03-01T05:27:36;103110.93;;;0.60;28.63
72330;BME280;60660;52.076;5.110;2023-03-01T05:30:02;103107.97;;;2.02;27.50
72330;BME280;60660;52.076;5.110;2023-03-01T05:32:27;103103.21;;;0.70;27.90
72330;BME280;60660;52.076;5.110;2023-03-01T05:34:53;103097.12;;;1.08;27.26
72330;BME280;60660;52.076;5.110;2023-03-01T05:37:19;103093.20;;;1.50;27.55
72330;BME280;60660;52.076;5.110;2023-03-01T05:39:44;103091.53;;;1.39;27.60
72330;BME280;60660;52.076;5.110;2023-03-01T05:42:10;103084.32;;;-0.29;28.99
72330;BME280;60660;52.076;5.110;2023-03-01T05:44:35;103086.48;;;-1.52;30.61
72330;BME280;60660;52.076;5.110;2023-03-01T05:47:01;103083.88;;;-0.80;30.71
72330;BME280;60660;52.076;5.110;2023-03-01T05:49:26;103074.42;;;-1.46;31.21
72330;BME280;60660;52.076;5.110;2023-03-01T05:51:52;103075.45;;;-1.36;30.96
72330;BME280;60660;52.076;5.110;2023-03-01T05:54:16;103072.14;;;-1.24;30.79
72330;BME280;60660;52.076;5.110;2023-03-01T05:56:41;103072.50;;;-0.51;29.52
72330;BME280;60660;52.076;5.110;2023-03-01T05:59:07;103069.92;;;-0.62;29.65
72330;BME280;60660;52.076;5.110;2023-03-01T06:01:34;103067.19;;;-1.03;29.65
72330;BME280;60660;52.076;5.110;2023-03-01T06:03:58;103069.94;;;-0.49;29.69
72330;BME280;60660;52.076;5.110;2023-03-01T06:06:23;103071.26;;;-0.87;30.21
72330;BME280;60660;52.076;5.110;2023-03-01T06:08:48;103070.23;;;-0.33;30.16
72330;BME280;60660;52.076;5.110;2023-03-01T06:11:15;103076.49;;;-1.44;30.54
72330;BME280;60660;52.076;5.110;2023-03-01T06:13:41;103079.94;;;-1.83;31.39
72330;BME280;60660;52.076;5.110;2023-03-01T06:16:05;103080.03;;;-1.69;31.19
72330;BME280;60660;52.076;5.110;2023-03-01T06:18:31;103073.36;;;-1.84;31.42
72330;BME280;60660;52.076;5.110;2023-03-01T06:20:56;103075.81;;;-0.50;30.39
72330;BME280;60660;52.076;5.110;2023-03-01T06:23:21;103074.18;;;-1.21;29.98
72330;BME280;60660;52.076;5.110;2023-03-01T06:25:46;103077.10;;;-1.09;30.06
72330;BME280;60660;52.076;5.110;2023-03-01T06:28:11;103079.83;;;-0.79;30.23
72330;BME280;60660;52.076;5.110;2023-03-01T06:30:37;103081.65;;;0.35;28.64
72330;BME280;60660;52.076;5.110;2023-03-01T06:33:02;103086.27;;;1.67;27.29
72330;BME280;60660;52.076;5.110;2023-03-01T06:35:29;103084.32;;;0.32;28.09
72330;BME280;60660;52.076;5.110;2023-03-01T06:37:53;103084.71;;;-0.60;28.80
72330;BME280;60660;52.076;5.110;2023-03-01T06:40:19;103087.34;;;-0.18;29.10
72330;BME280;60660;52.076;5.110;2023-03-01T06:42:49;103085.70;;;0.01;28.94
72330;BME280;60660;52.076;5.110;2023-03-01T06:45:11;103084.51;;;-0.53;29.36
72330;BME280;60660;52.076;5.110;2023-03-01T06:47:35;103080.77;;;-0.97;29.32
72330;BME280;60660;52.076;5.110;2023-03-01T06:50:01;103082.08;;;-1.70;30.64
72330;BME280;60660;52.076;5.110;2023-03-01T06:52:26;103084.45;;;-0.12;29.15
72330;BME280;60660;52.076;5.110;2023-03-01T06:54:52;103085.67;;;0.34;28.40
72330;BME280;60660;52.076;5.110;2023-03-01T06:57:18;103087.02;;;-1.32;30.17
72330;BME280;60660;52.076;5.110;2023-03-01T06:59:43;103088.24;;;0.09;28.86
72330;BME280;60660;52.076;5.110;2023-03-01T07:02:10;103086.14;;;-0.52;29.64
72330;BME280;60660;52.076;5.110;2023-03-01T07:04:34;103085.39;;;-1.24;29.74
72330;BME280;60660;52.076;5.110;2023-03-01T07:07:01;103085.56;;;-0.64;29.73
72330;BME280;60660;52.076;5.110;2023-03-01T07:09:25;103079.17;;;0.12;29.31
72330;BME280;60660;52.076;5.110;2023-03-01T07:11:50;103080.21;;;-0.71;29.43
72330;BME280;60660;52.076;5.110;2023-03-01T07:14:15;103084.87;;;-0.31;29.00
72330;BME280;60660;52.076;5.110;2023-03-01T07:16:40;103082.98;;;-0.61;29.33
72330;BME280;60660;52.076;5.110;2023-03-01T07:19:06;103079.94;;;0.04;28.56
72330;BME280;60660;52.076;5.110;2023-03-01T07:21:32;103084.26;;;-0.38;28.91
72330;BME280;60660;52.076;5.110;2023-03-01T07:23:58;103088.32;;;-1.03;30.10
72330;BME280;60660;52.076;5.110;2023-03-01T07:26:22;103093.64;;;-0.12;29.64
72330;BME280;60660;52.076;5.110;2023-03-01T07:28:48;103097.92;;;-0.15;29.71
72330;BME280;60660;52.076;5.110;2023-03-01T07:31:13;103097.90;;;-1.50;31.56
72330;BME280;60660;52.076;5.110;2023-03-01T07:33:39;103096.93;;;-1.58;30.77
72330;BME280;60660;52.076;5.110;2023-03-01T07:36:05;103102.08;;;-1.20;31.03
72330;BME280;60660;52.076;5.110;2023-03-01T07:38:30;103102.77;;;-1.15;31.11
72330;BME280;60660;52.076;5.110;2023-03-01T07:40:58;103102.58;;;-1.00;31.13
72330;BME280;60660;52.076;5.110;2023-03-01T07:43:34;103101.28;;;-1.27;30.92
72330;BME280;60660;52.076;5.110;2023-03-01T07:45:46;103100.33;;;-1.68;31.53
72330;BME280;60660;52.076;5.110;2023-03-01T07:48:11;103094.32;;;-1.70;31.92
72330;BME280;60660;52.076;5.110;2023-03-01T07:50:38;103096.43;;;-0.97;31.83
72330;BME280;60660;52.076;5.110;2023-03-01T07:53:01;103099.11;;;0.58;29.83
72330;BME280;60660;52.076;5.110;2023-03-01T07:55:27;103102.27;;;1.19;28.86
72330;BME280;60660;52.076;5.110;2023-03-01T07:57:53;103104.27;;;1.48;28.69
72330;BME280;60660;52.076;5.110;2023-03-01T08:00:19;103100.12;;;-1.41;30.41
72330;BME280;60660;52.076;5.110;2023-03-01T08:02:43;103096.81;;;-0.02;28.83
72330;BME280;60660;52.076;5.110;2023-03-01T08:05:09;103104.23;;;-0.61;29.90
72330;BME280;60660;52.076;5.110;2023-03-01T08:07:35;103106.74;;;1.36;28.44
72330;BME280;60660;52.076;5.110;2023-03-01T08:10:00;103105.25;;;2.50;26.95
72330;BME280;60660;52.076;5.110;2023-03-01T08:12:25;103101.46;;;3.56;25.78
72330;BME280;60660;52.076;5.110;2023-03-01T08:14:51;103103.52;;;3.09;24.98
72330;BME280;60660;52.076;5.110;2023-03-01T08:17:15;103099.56;;;2.63;25.74
72330;BME280;60660;52.076;5.110;2023-03-01T08:19:42;103102.36;;;1.87;26.88
72330;BME280;60660;52.076;5.110;2023-03-01T08:22:06;103101.70;;;0.80;27.65
72330;BME280;60660;52.076;5.110;2023-03-01T08:24:32;103094.62;;;0.57;27.98
72330;BME280;60660;52.076;5.110;2023-03-01T08:26:58;103090.86;;;-0.05;28.56
72330;BME280;60660;52.076;5.110;2023-03-01T08:29:24;103093.03;;;-2.09;32.15
72330;BME280;60660;52.076;5.110;2023-03-01T08:31:49;103093.87;;;-1.51;31.76
72330;BME280;60660;52.076;5.110;2023-03-01T08:34:17;103088.60;;;-2.29;31.64
72330;BME280;60660;52.076;5.110;2023-03-01T08:36:42;103089.44;;;-1.16;31.28
72330;BME280;60660;52.076;5.110;2023-03-01T08:39:06;103089.28;;;-0.05;29.76
72330;BME280;60660;52.076;5.110;2023-03-01T08:41:30;103091.85;;;0.36;29.17
72330;BME280;60660;52.076;5.110;2023-03-01T08:43:56;103088.90;;;-0.03;28.79
72330;BME280;60660;52.076;5.110;2023-03-01T08:46:21;103089.07;;;-0.52;30.25
72330;BME280;60660;52.076;5.110;2023-03-01T08:48:47;103083.77;;;-0.13;29.19
72330;BME280;60660;52.076;5.110;2023-03-01T08:51:14;103082.03;;;1.48;28.14
72330;BME280;60660;52.076;5.110;2023-03-01T08:53:38;103076.68;;;0.02;28.77
72330;BME280;60660;52.076;5.110;2023-03-01T08:56:04;103077.15;;;-0.87;29.87
72330;BME280;60660;52.076;5.110;2023-03-01T08:58:30;103078.37;;;-1.16;29.90
72330;BME280;60660;52.076;5.110;2023-03-01T09:00:54;103077.25;;;-1.34;30.82
72330;BME280;60660;52.076;5.110;2023-03-01T09:03:20;103073.66;;;-1.04;31.31
72330;BME280;60660;52.076;5.110;2023-03-01T09:05:46;103070.11;;;-0.69;30.26
72330;BME280;60660;52.076;5.110;2023-03-01T09:08:11;103064.78;;;-0.61;29.88
72330;BME280;60660;52.076;5.110;2023-03-01T09:10:38;103065.42;;;-1.17;29.80
72330;BME280;60660;52.076;5.110;2023-03-01T09:13:02;103057.04;;;-0.32;29.87
72330;BME280;60660;52.076;5.110;2023-03-01T09:15:27;103051.21;;;-1.60;31.35
72330;BME280;60660;52.076;5.110;2023-03-01T09:17:52;103051.40;;;-0.28;29.66
72330;BME280;60660;52.076;5.110;2023-03-01T09:20:18;103049.75;;;-1.52;31.49
72330;BME280;60660;52.076;5.110;2023-03-01T09:22:43;103045.38;;;-1.91;31.01
72330;BME280;60660;52.076;5.110;2023-03-01T09:25:08;103044.92;;;-2.41;32.64
72330;BME280;60660;52.076;5.110;2023-03-01T09:27:34;103043.71;;;-2.43;33.06
72330;BME280;60660;52.076;5.110;2023-03-01T09:30:00;103035.32;;;-1.70;32.82
72330;BME280;60660;52.076;5.110;2023-03-01T09:32:25;103035.84;;;-0.40;30.73
72330;BME280;60660;52.076;5.110;2023-03-01T09:34:51;103030.11;;;-0.85;31.54
72330;BME280;60660;52.076;5.110;2023-03-01T09:37:16;103028.95;;;-0.77;31.33
72330;BME280;60660;52.076;5.110;2023-03-01T09:39:42;103026.59;;;-0.95;30.87
72330;BME280;60660;52.076;5.110;2023-03-01T09:42:12;103023.83;;;-0.32;28.87
72330;BME280;60660;52.076;5.110;2023-03-01T09:44:38;103023.93;;;0.78;28.41
72330;BME280;60660;52.076;5.110;2023-03-01T09:46:58;103024.34;;;0.09;29.14
72330;BME280;60660;52.076;5.110;2023-03-01T09:49:25;103022.48;;;-0.47;30.41
72330;BME280;60660;52.076;5.110;2023-03-01T09:51:57;103028.72;;;1.67;27.81
72330;BME280;60660;52.076;5.110;2023-03-01T09:54:14;103032.05;;;1.44;26.88
72330;BME280;60660;52.076;5.110;2023-03-01T09:56:43;103025.58;;;0.88;27.51
72330;BME280;60660;52.076;5.110;2023-03-01T09:59:15;103024.91;;;0.05;28.48
72330;BME280;60660;52.076;5.110;2023-03-01T10:01:33;103027.50;;;0.44;28.50
72330;BME280;60660;52.076;5.110;2023-03-01T10:04:02;103030.07;;;1.81;27.11
72330;BME280;60660;52.076;5.110;2023-03-01T10:06:22;103029.53;;;-0.21;28.58
72330;BME280;60660;52.076;5.110;2023-03-01T10:08:53;103026.15;;;-0.07;29.72
72330;BME280;60660;52.076;5.110;2023-03-01T10:11:20;103025.41;;;3.15;29.81
72330;BME280;60660;52.076;5.110;2023-03-01T10:13:46;103024.91;;;0.76;27.98
72330;BME280;60660;52.076;5.110;2023-03-01T10:16:09;103019.89;;;2.29;26.49
72330;BME280;60660;52.076;5.110;2023-03-01T10:18:30;103019.82;;;0.43;27.33
72330;BME280;60660;52.076;5.110;2023-03-01T10:20:57;103013.59;;;3.21;26.85
72330;BME280;60660;52.076;5.110;2023-03-01T10:23:19;103013.50;;;2.29;25.46
72330;BME280;60660;52.076;5.110;2023-03-01T10:25:51;103011.18;;;1.86;26.17
72330;BME280;60660;52.076;5.110;2023-03-01T10:28:16;103004.39;;;3.62;24.27
72330;BME280;60660;52.076;5.110;2023-03-01T10:30:37;103002.45;;;4.62;26.34
72330;BME280;60660;52.076;5.110;2023-03-01T10:33:00;103000.08;;;3.60;23.66
72330;BME280;60660;52.076;5.110;2023-03-01T10:35:28;102997.10;;;1.93;26.80
72330;BME280;60660;52.076;5.110;2023-03-01T10:38:03;102994.56;;;2.83;25.48
72330;BME280;60660;52.076;5.110;2023-03-01T10:40:17;102996.20;;;3.24;23.76
72330;BME280;60660;52.076;5.110;2023-03-01T10:42:47;102994.41;;;3.02;25.15
72330;BME280;60660;52.076;5.110;2023-03-01T10:45:32;102996.39;;;3.06;25.39
72330;BME280;60660;52.076;5.110;2023-03-01T10:47:33;102996.30;;;1.78;26.14
72330;BME280;60660;52.076;5.110;2023-03-01T10:50:00;102994.89;;;2.28;25.88
72330;BME280;60660;52.076;5.110;2023-03-01T10:52:27;102987.85;;;5.23;22.38
72330;BME280;60660;52.076;5.110;2023-03-01T10:54:54;102988.43;;;3.96;23.46
72330;BME280;60660;52.076;5.110;2023-03-01T10:57:31;102981.33;;;0.86;25.72
72330;BME280;60660;52.076;5.110;2023-03-01T10:59:40;102972.34;;;0.92;26.48
72330;BME280;60660;52.076;5.110;2023-03-01T11:02:25;102966.93;;;1.11;27.77
72330;BME280;60660;52.076;5.110;2023-03-01T11:04:31;102957.79;;;3.69;26.00
72330;BME280;60660;52.076;5.110;2023-03-01T11:06:59;102950.45;;;3.30;23.68
72330;BME280;60660;52.076;5.110;2023-03-01T11:09:23;102941.83;;;3.00;24.18
72330;BME280;60660;52.076;5.110;2023-03-01T11:11:52;102940.29;;;2.84;24.76
72330;BME280;60660;52.076;5.110;2023-03-01T11:14:15;102940.91;;;4.76;23.42
72330;BME280;60660;52.076;5.110;2023-03-01T11:16:40;102929.13;;;3.63;24.34
72330;BME280;60660;52.076;5.110;2023-03-01T11:19:15;102932.65;;;4.21;24.12
72330;BME280;60660;52.076;5.110;2023-03-01T11:21:32;102931.71;;;2.91;24.99
72330;BME280;60660;52.076;5.110;2023-03-01T11:23:53;102930.56;;;5.09;23.03
72330;BME280;60660;52.076;5.110;2023-03-01T11:26:19;102923.91;;;5.25;22.21
72330;BME280;60660;52.076;5.110;2023-03-01T11:28:47;102915.28;;;3.99;22.93
72330;BME280;60660;52.076;5.110;2023-03-01T11:31:11;102917.20;;;2.79;25.10
72330;BME280;60660;52.076;5.110;2023-03-01T11:33:42;102909.07;;;3.38;23.22
72330;BME280;60660;52.076;5.110;2023-03-01T11:36:06;102911.19;;;4.59;23.11
72330;BME280;60660;52.076;5.110;2023-03-01T11:38:30;102915.32;;;2.40;24.89
72330;BME280;60660;52.076;5.110;2023-03-01T11:40:57;102917.71;;;1.90;24.40
72330;BME280;60660;52.076;5.110;2023-03-01T11:43:23;102920.05;;;3.08;23.30
72330;BME280;60660;52.076;5.110;2023-03-01T11:45:54;102915.82;;;4.46;24.20
72330;BME280;60660;52.076;5.110;2023-03-01T11:48:31;102912.56;;;4.15;21.89
72330;BME280;60660;52.076;5.110;2023-03-01T11:50:40;102907.38;;;4.28;22.05
72330;BME280;60660;52.076;5.110;2023-03-01T11:53:09;102897.72;;;4.01;22.42
72330;BME280;60660;52.076;5.110;2023-03-01T11:55:35;102898.50;;;3.28;24.15
72330;BME280;60660;52.076;5.110;2023-03-01T11:58:03;102902.59;;;3.53;23.08
72330;BME280;60660;52.076;5.110;2023-03-01T12:00:26;102899.68;;;5.29;21.49
72330;BME280;60660;52.076;5.110;2023-03-01T12:03:40;102898.77;;;4.08;22.10
72330;BME280;60660;52.076;5.110;2023-03-01T12:05:50;102899.37;;;3.46;22.10
72330;BME280;60660;52.076;5.110;2023-03-01T12:07:41;102895.66;;;3.39;22.32
72330;BME280;60660;52.076;5.110;2023-03-01T12:10:17;102894.92;;;3.40;22.83
72330;BME280;60660;52.076;5.110;2023-03-01T12:12:30;102895.15;;;3.11;22.56
72330;BME280;60660;52.076;5.110;2023-03-01T12:14:58;102892.67;;;3.70;22.58
72330;BME280;60660;52.076;5.110;2023-03-01T12:17:28;102887.68;;;3.35;23.35
72330;BME280;60660;52.076;5.110;2023-03-01T12:19:56;102882.42;;;5.73;21.68
72330;BME280;60660;52.076;5.110;2023-03-01T12:22:16;102881.01;;;4.83;21.94
72330;BME280;60660;52.076;5.110;2023-03-01T12:24:44;102880.10;;;3.14;23.00
72330;BME280;60660;52.076;5.110;2023-03-01T12:27:09;102873.77;;;3.25;22.03
72330;BME280;60660;52.076;5.110;2023-03-01T12:29:25;102874.59;;;4.81;20.96
72330;BME280;60660;52.076;5.110;2023-03-01T12:32:00;102882.23;;;4.62;21.56
72330;BME280;60660;52.076;5.110;2023-03-01T12:34:25;102878.36;;;5.81;20.53
72330;BME280;60660;52.076;5.110;2023-03-01T12:36:47;102869.00;;;5.30;20.37
72330;BME280;60660;52.076;5.110;2023-03-01T12:39:14;102869.42;;;5.16;20.31
72330;BME280;60660;52.076;5.110;2023-03-01T12:41:43;102865.98;;;3.99;21.84
72330;BME280;60660;52.076;5.110;2023-03-01T12:44:04;102860.64;;;5.83;19.82